sensor_id;sensor_type;location;lat;lon;timestamp;P1;durP1;ratioP1;P2;durP2;ratioP2
28848;SDS011;15981;43.292;-2.888;2022-11-28T00:00:55;3.15;;;1.30;;
28848;SDS011;15981;43.292;-2.888;2022-11-28T00:03:21;2.03;;;1.30;;
28848;SDS011;15981;43.292;-2.888;2022-11-28T00:05:49;2.10;;;1.17;;
28848;SDS011;15981;43.292;-2.888;2022-11-28T00:08:15;1.52;;;1.30;;
28848;SDS011;15981;43.292;-2.888;2022-11-28T00:10:40;2.83;;;1.58;;
28848;SDS011;15981;43.292;-2.888;2022-11-28T00:13:06;3.28;;;1.45;;
28848;SDS011;15981;43.292;-2.888;2022-11-28T00:15:32;3.50;;;1.48;;
28848;SDS011;15981;43.292;-2.888;2022-11-28T00:17:58;1.80;;;1.45;;
28848;SDS011;15981;43.292;-2.888;2022-11-28T00:20:24;2.25;;;1.40;;
28848;SDS011;15981;43.292;-2.888;2022-11-28T00:22:50;2.17;;;1.55;;
28848;SDS011;15981;43.292;-2.888;2022-11-28T00:25:16;2.35;;;1.60;;
28848;SDS011;15981;43.292;-2.888;2022-11-28T00:27:42;3.38;;;2.35;;
28848;SDS011;15981;43.292;-2.888;2022-11-28T00:30:08;3.15;;;2.03;;
28848;SDS011;15981;43.292;-2.888;2022-11-28T00:32:34;5.28;;;2.95;;
28848;SDS011;15981;43.292;-2.888;2022-11-28T00:34:59;4.55;;;2.53;;
28848;SDS011;15981;43.292;-2.888;2022-11-28T00:37:25;2.20;;;1.60;;
28848;SDS011;15981;43.292;-2.888;2022-11-28T00:39:51;3.03;;;1.40;;
28848;SDS011;15981;43.292;-2.888;2022-11-28T00:42:17;2.67;;;1.50;;
28848;SDS011;15981;43.292;-2.888;2022-11-28T00:44:45;2.58;;;1.30;;
28848;SDS011;15981;43.292;-2.888;2022-11-28T00:47:11;2.63;;;1.50;;
28848;SDS011;15981;43.292;-2.888;2022-11-28T00:49:37;1.98;;;1.42;;
28848;SDS011;15981;43.292;-2.888;2022-11-28T00:52:02;6.97;;;1.50;;
28848;SDS011;15981;43.292;-2.888;2022-11-28T00:54:28;2.53;;;1.20;;
28848;SDS011;15981;43.292;-2.888;2022-11-28T00:56:54;1.65;;;1.05;;
28848;SDS011;15981;43.292;-2.888;2022-11-28T00:59:20;2.20;;;1.40;;
28848;SDS011;15981;43.292;-2.888;2022-11-28T01:01:45;4.88;;;1.63;;
28848;SDS011;15981;43.292;-2.888;2022-11-28T01:04:12;3.35;;;1.45;;
28848;SDS011;15981;43.292;-2.888;2022-11-28T01:06:40;2.95;;;1.50;;
28848;SDS011;15981;43.292;-2.888;2022-11-28T01:09:09;4.47;;;1.50;;
28848;SDS011;15981;43.292;-2.888;2022-11-28T01:11:36;2.63;;;1.50;;
28848;SDS011;15981;43.292;-2.888;2022-11-28T01:14:02;4.05;;;1.33;;
28848;SDS011;15981;43.292;-2.888;2022-11-28T01:16:28;4.80;;;1.90;;
28848;SDS011;15981;43.292;-2.888;2022-11-28T01:18:53;2.97;;;1.20;;
28848;SDS011;15981;43.292;-2.888;2022-11-28T01:21:19;3.53;;;1.40;;
28848;SDS011;15981;43.292;-2.888;2022-11-28T01:23:45;2.60;;;1.40;;
28848;SDS011;15981;43.292;-2.888;2022-11-28T01:26:15;4.22;;;1.35;;
28848;SDS011;15981;43.292;-2.888;2022-11-28T01:28:41;2.58;;;1.42;;
28848;SDS011;15981;43.292;-2.888;2022-11-28T01:31:07;3.17;;;1.40;;
28848;SDS011;15981;43.292;-2.888;2022-11-28T01:33:33;2.63;;;1.40;;
28848;SDS011;15981;43.292;-2.888;2022-11-28T01:35:59;2.05;;;1.20;;
28848;SDS011;15981;43.292;-2.888;2022-11-28T01:38:25;2.60;;;1.38;;
28848;SDS011;15981;43.292;-2.888;2022-11-28T01:40:52;3.25;;;1.48;;
28848;SDS011;15981;43.292;-2.888;2022-11-28T01:43:19;3.95;;;1.73;;
28848;SDS011;15981;43.292;-2.888;2022-11-28T01:45:45;3.47;;;1.98;;
28848;SDS011;15981;43.292;-2.888;2022-11-28T01:48:13;2.28;;;1.20;;
28848;SDS011;15981;43.292;-2.888;2022-11-28T01:50:40;3.05;;;1.48;;
28848;SDS011;15981;43.292;-2.888;2022-11-28T01:53:07;3.33;;;1.23;;
28848;SDS011;15981;43.292;-2.888;2022-11-28T01:55:34;2.45;;;1.20;;
28848;SDS011;15981;43.292;-2.888;2022-11-28T01:58:02;2.72;;;1.25;;
28848;SDS011;15981;43.292;-2.888;2022-11-28T02:00:28;3.05;;;1.20;;
28848;SDS011;15981;43.292;-2.888;2022-11-28T02:03:10;3.33;;;1.25;;
28848;SDS011;15981;43.292;-2.888;2022-11-28T02:05:37;2.60;;;1.17;;
28848;SDS011;15981;43.292;-2.888;2022-11-28T02:08:03;1.55;;;1.10;;
28848;SDS011;15981;43.292;-2.888;2022-11-28T02:16:10;3.40;;;1.15;;
28848;SDS011;15981;43.292;-2.888;2022-11-28T02:24:19;3.15;;;1.15;;
28848;SDS011;15981;43.292;-2.888;2022-11-28T02:40:17;2.85;;;1.27;;
28848;SDS011;15981;43.292;-2.888;2022-11-28T02:47:54;1.48;;;0.70;;
28848;SDS011;15981;43.292;-2.888;2022-11-28T02:50:27;3.03;;;1.08;;
28848;SDS011;15981;43.292;-2.888;2022-11-28T02:52:55;1.48;;;1.00;;
28848;SDS011;15981;43.292;-2.888;2022-11-28T02:55:23;2.15;;;0.82;;
28848;SDS011;15981;43.292;-2.888;2022-11-28T02:57:51;2.42;;;0.90;;
28848;SDS011;15981;43.292;-2.888;2022-11-28T03:00:25;1.30;;;0.98;;
28848;SDS011;15981;43.292;-2.888;2022-11-28T03:03:35;1.40;;;1.00;;
28848;SDS011;15981;43.292;-2.888;2022-11-28T03:05:42;2.35;;;1.02;;
28848;SDS011;15981;43.292;-2.888;2022-11-28T03:10:58;3.20;;;1.10;;
28848;SDS011;15981;43.292;-2.888;2022-11-28T03:16:11;2.95;;;1.02;;
28848;SDS011;15981;43.292;-2.888;2022-11-28T03:18:41;3.08;;;0.93;;
28848;SDS011;15981;43.292;-2.888;2022-11-28T03:21:24;2.45;;;0.90;;
28848;SDS011;15981;43.292;-2.888;2022-11-28T03:23:56;3.40;;;1.20;;
28848;SDS011;15981;43.292;-2.888;2022-11-28T03:29:24;2.33;;;0.98;;
28848;SDS011;15981;43.292;-2.888;2022-11-28T03:31:59;2.35;;;1.15;;
28848;SDS011;15981;43.292;-2.888;2022-11-28T03:34:27;2.35;;;1.10;;
28848;SDS011;15981;43.292;-2.888;2022-11-28T03:36:57;1.83;;;1.25;;
28848;SDS011;15981;43.292;-2.888;2022-11-28T03:39:27;5.00;;;1.27;;
28848;SDS011;15981;43.292;-2.888;2022-11-28T03:41:56;2.28;;;1.30;;
28848;SDS011;15981;43.292;-2.888;2022-11-28T03:44:26;1.85;;;1.00;;
28848;SDS011;15981;43.292;-2.888;2022-11-28T03:46:53;1.30;;;0.93;;
28848;SDS011;15981;43.292;-2.888;2022-11-28T03:49:22;1.73;;;1.08;;
28848;SDS011;15981;43.292;-2.888;2022-11-28T03:51:53;2.33;;;0.90;;
28848;SDS011;15981;43.292;-2.888;2022-11-28T03:54:21;2.65;;;1.30;;
28848;SDS011;15981;43.292;-2.888;2022-11-28T04:04:29;2.47;;;1.02;;
28848;SDS011;15981;43.292;-2.888;2022-11-28T04:07:13;2.50;;;1.45;;
28848;SDS011;15981;43.292;-2.888;2022-11-28T04:09:44;2.25;;;1.13;;
28848;SDS011;15981;43.292;-2.888;2022-11-28T04:12:16;1.90;;;0.98;;
28848;SDS011;15981;43.292;-2.888;2022-11-28T04:14:52;3.55;;;1.48;;
28848;SDS011;15981;43.292;-2.888;2022-11-28T04:17:28;3.75;;;1.00;;
28848;SDS011;15981;43.292;-2.888;2022-11-28T04:19:56;3.08;;;1.00;;
28848;SDS011;15981;43.292;-2.888;2022-11-28T04:24:52;3.78;;;1.13;;
28848;SDS011;15981;43.292;-2.888;2022-11-28T04:27:20;3.28;;;1.08;;
28848;SDS011;15981;43.292;-2.888;2022-11-28T04:29:52;2.60;;;1.20;;
28848;SDS011;15981;43.292;-2.888;2022-11-28T04:32:18;3.13;;;1.00;;
28848;SDS011;15981;43.292;-2.888;2022-11-28T04:34:47;2.30;;;1.10;;
28848;SDS011;15981;43.292;-2.888;2022-11-28T04:37:14;2.55;;;0.85;;
28848;SDS011;15981;43.292;-2.888;2022-11-28T04:39:42;3.83;;;1.20;;
28848;SDS011;15981;43.292;-2.888;2022-11-28T04:42:09;1.92;;;0.93;;
28848;SDS011;15981;43.292;-2.888;2022-11-28T04:44:37;4.13;;;1.02;;
28848;SDS011;15981;43.292;-2.888;2022-11-28T04:47:05;3.42;;;1.00;;
28848;SDS011;15981;43.292;-2.888;2022-11-28T04:49:31;3.03;;;1.00;;
28848;SDS011;15981;43.292;-2.888;2022-11-28T04:54:38;3.40;;;1.13;;
28848;SDS011;15981;43.292;-2.888;2022-11-28T04:57:25;3.53;;;1.23;;
28848;SDS011;15981;43.292;-2.888;2022-11-28T04:59:53;2.55;;;1.20;;
28848;SDS011;15981;43.292;-2.888;2022-11-28T05:02:19;2.95;;;1.10;;
28848;SDS011;15981;43.292;-2.888;2022-11-28T05:04:45;2.13;;;1.10;;
28848;SDS011;15981;43.292;-2.888;2022-11-28T05:07:11;2.30;;;1.05;;
28848;SDS011;15981;43.292;-2.888;2022-11-28T05:09:37;1.95;;;0.70;;
28848;SDS011;15981;43.292;-2.888;2022-11-28T05:12:04;2.67;;;1.00;;
28848;SDS011;15981;43.292;-2.888;2022-11-28T05:14:30;2.58;;;1.20;;
28848;SDS011;15981;43.292;-2.888;2022-11-28T05:16:56;2.83;;;1.20;;
28848;SDS011;15981;43.292;-2.888;2022-11-28T05:19:22;2.50;;;1.10;;
28848;SDS011;15981;43.292;-2.888;2022-11-28T05:21:48;2.15;;;0.85;;
28848;SDS011;15981;43.292;-2.888;2022-11-28T05:24:13;1.88;;;1.15;;
28848;SDS011;15981;43.292;-2.888;2022-11-28T05:26:39;3.13;;;1.10;;
28848;SDS011;15981;43.292;-2.888;2022-11-28T05:29:05;2.38;;;1.10;;
28848;SDS011;15981;43.292;-2.888;2022-11-28T05:31:31;2.00;;;0.90;;
28848;SDS011;15981;43.292;-2.888;2022-11-28T05:33:56;2.80;;;0.90;;
28848;SDS011;15981;43.292;-2.888;2022-11-28T05:36:22;3.03;;;1.00;;
28848;SDS011;15981;43.292;-2.888;2022-11-28T05:38:48;3.53;;;1.63;;
28848;SDS011;15981;43.292;-2.888;2022-11-28T05:41:18;3.78;;;1.08;;
28848;SDS011;15981;43.292;-2.888;2022-11-28T05:43:44;3.38;;;0.82;;
28848;SDS011;15981;43.292;-2.888;2022-11-28T05:46:10;4.60;;;1.05;;
28848;SDS011;15981;43.292;-2.888;2022-11-28T05:48:35;2.47;;;0.98;;
28848;SDS011;15981;43.292;-2.888;2022-11-28T05:51:04;3.05;;;1.05;;
28848;SDS011;15981;43.292;-2.888;2022-11-28T05:53:30;2.13;;;1.30;;
28848;SDS011;15981;43.292;-2.888;2022-11-28T05:55:56;2.53;;;0.90;;
28848;SDS011;15981;43.292;-2.888;2022-11-28T05:58:22;2.40;;;1.30;;
28848;SDS011;15981;43.292;-2.888;2022-11-28T06:00:48;3.47;;;1.08;;
28848;SDS011;15981;43.292;-2.888;2022-11-28T06:03:13;3.42;;;1.13;;
28848;SDS011;15981;43.292;-2.888;2022-11-28T06:05:40;1.95;;;1.08;;
28848;SDS011;15981;43.292;-2.888;2022-11-28T06:08:06;3.50;;;1.30;;
28848;SDS011;15981;43.292;-2.888;2022-11-28T06:10:32;3.17;;;1.08;;
28848;SDS011;15981;43.292;-2.888;2022-11-28T06:12:58;1.52;;;0.98;;
28848;SDS011;15981;43.292;-2.888;2022-11-28T06:15:24;2.00;;;1.05;;
28848;SDS011;15981;43.292;-2.888;2022-11-28T06:17:49;3.65;;;0.90;;
28848;SDS011;15981;43.292;-2.888;2022-11-28T06:20:15;2.05;;;0.90;;
28848;SDS011;15981;43.292;-2.888;2022-11-28T06:22:41;2.17;;;0.90;;
28848;SDS011;15981;43.292;-2.888;2022-11-28T06:25:07;2.95;;;0.80;;
28848;SDS011;15981;43.292;-2.888;2022-11-28T06:27:33;2.15;;;0.90;;
28848;SDS011;15981;43.292;-2.888;2022-11-28T06:29:59;2.63;;;1.00;;
28848;SDS011;15981;43.292;-2.888;2022-11-28T06:32:25;2.08;;;0.80;;
28848;SDS011;15981;43.292;-2.888;2022-11-28T06:34:51;1.52;;;1.10;;
28848;SDS011;15981;43.292;-2.888;2022-11-28T06:37:16;1.98;;;0.80;;
28848;SDS011;15981;43.292;-2.888;2022-11-28T06:39:42;2.70;;;1.00;;
28848;SDS011;15981;43.292;-2.888;2022-11-28T06:42:08;3.47;;;0.90;;
28848;SDS011;15981;43.292;-2.888;2022-11-28T06:44:34;2.92;;;1.00;;
28848;SDS011;15981;43.292;-2.888;2022-11-28T06:46:59;2.08;;;0.98;;
28848;SDS011;15981;43.292;-2.888;2022-11-28T06:49:25;3.85;;;1.10;;
28848;SDS011;15981;43.292;-2.888;2022-11-28T06:51:51;2.75;;;0.93;;
28848;SDS011;15981;43.292;-2.888;2022-11-28T06:54:16;1.88;;;1.10;;
28848;SDS011;15981;43.292;-2.888;2022-11-28T06:56:42;1.90;;;1.00;;
28848;SDS011;15981;43.292;-2.888;2022-11-28T06:59:09;2.70;;;0.90;;
28848;SDS011;15981;43.292;-2.888;2022-11-28T07:01:35;1.98;;;1.10;;
28848;SDS011;15981;43.292;-2.888;2022-11-28T07:04:01;1.85;;;0.85;;
28848;SDS011;15981;43.292;-2.888;2022-11-28T07:06:27;2.67;;;1.00;;
28848;SDS011;15981;43.292;-2.888;2022-11-28T07:08:54;2.28;;;0.90;;
28848;SDS011;15981;43.292;-2.888;2022-11-28T07:11:21;3.72;;;0.70;;
28848;SDS011;15981;43.292;-2.888;2022-11-28T07:13:48;1.75;;;0.80;;
28848;SDS011;15981;43.292;-2.888;2022-11-28T07:16:15;2.03;;;1.10;;
28848;SDS011;15981;43.292;-2.888;2022-11-28T07:18:41;2.78;;;0.90;;
28848;SDS011;15981;43.292;-2.888;2022-11-28T07:21:07;2.95;;;1.00;;
28848;SDS011;15981;43.292;-2.888;2022-11-28T07:23:33;3.53;;;1.25;;
28848;SDS011;15981;43.292;-2.888;2022-11-28T07:25:59;1.10;;;0.70;;
28848;SDS011;15981;43.292;-2.888;2022-11-28T07:28:26;3.15;;;0.85;;
28848;SDS011;15981;43.292;-2.888;2022-11-28T07:31:03;1.77;;;0.90;;
28848;SDS011;15981;43.292;-2.888;2022-11-28T07:33:29;5.00;;;1.00;;
28848;SDS011;15981;43.292;-2.888;2022-11-28T07:35:58;3.40;;;1.38;;
28848;SDS011;15981;43.292;-2.888;2022-11-28T07:38:24;2.63;;;1.20;;
28848;SDS011;15981;43.292;-2.888;2022-11-28T07:40:50;2.40;;;0.93;;
28848;SDS011;15981;43.292;-2.888;2022-11-28T07:43:15;2.13;;;0.90;;
28848;SDS011;15981;43.292;-2.888;2022-11-28T07:45:41;1.90;;;0.95;;
28848;SDS011;15981;43.292;-2.888;2022-11-28T07:48:07;3.00;;;1.20;;
28848;SDS011;15981;43.292;-2.888;2022-11-28T07:50:36;1.92;;;1.20;;
28848;SDS011;15981;43.292;-2.888;2022-11-28T07:53:02;3.17;;;0.93;;
28848;SDS011;15981;43.292;-2.888;2022-11-28T07:55:28;2.17;;;1.00;;
28848;SDS011;15981;43.292;-2.888;2022-11-28T07:57:54;4.68;;;1.27;;
28848;SDS011;15981;43.292;-2.888;2022-11-28T08:00:20;2.72;;;1.08;;
28848;SDS011;15981;43.292;-2.888;2022-11-28T08:02:45;2.20;;;0.77;;
28848;SDS011;15981;43.292;-2.888;2022-11-28T08:05:11;3.03;;;1.00;;
28848;SDS011;15981;43.292;-2.888;2022-11-28T08:07:37;2.83;;;1.30;;
28848;SDS011;15981;43.292;-2.888;2022-11-28T08:10:06;5.57;;;1.48;;
28848;SDS011;15981;43.292;-2.888;2022-11-28T08:12:32;3.13;;;0.90;;
28848;SDS011;15981;43.292;-2.888;2022-11-28T08:14:58;1.98;;;0.95;;
28848;SDS011;15981;43.292;-2.888;2022-11-28T08:17:23;3.10;;;1.42;;
28848;SDS011;15981;43.292;-2.888;2022-11-28T08:19:49;3.55;;;1.27;;
28848;SDS011;15981;43.292;-2.888;2022-11-28T08:22:15;3.85;;;1.42;;
28848;SDS011;15981;43.292;-2.888;2022-11-28T08:24:41;3.63;;;1.08;;
28848;SDS011;15981;43.292;-2.888;2022-11-28T08:27:06;2.65;;;1.30;;
28848;SDS011;15981;43.292;-2.888;2022-11-28T08:29:33;4.20;;;1.35;;
28848;SDS011;15981;43.292;-2.888;2022-11-28T08:31:58;6.53;;;1.50;;
28848;SDS011;15981;43.292;-2.888;2022-11-28T08:34:24;3.40;;;1.70;;
28848;SDS011;15981;43.292;-2.888;2022-11-28T08:36:50;3.85;;;1.58;;
28848;SDS011;15981;43.292;-2.888;2022-11-28T08:39:16;3.45;;;1.67;;
28848;SDS011;15981;43.292;-2.888;2022-11-28T08:41:42;4.47;;;1.95;;
28848;SDS011;15981;43.292;-2.888;2022-11-28T08:44:07;4.88;;;1.67;;
28848;SDS011;15981;43.292;-2.888;2022-11-28T08:46:33;4.75;;;1.73;;
28848;SDS011;15981;43.292;-2.888;2022-11-28T08:48:59;5.70;;;2.00;;
28848;SDS011;15981;43.292;-2.888;2022-11-28T08:51:28;7.00;;;2.25;;
28848;SDS011;15981;43.292;-2.888;2022-11-28T08:53:54;5.72;;;1.90;;
28848;SDS011;15981;43.292;-2.888;2022-11-28T08:56:20;2.78;;;1.50;;
28848;SDS011;15981;43.292;-2.888;2022-11-28T08:58:46;3.30;;;1.50;;
28848;SDS011;15981;43.292;-2.888;2022-11-28T09:01:19;5.45;;;1.77;;
28848;SDS011;15981;43.292;-2.888;2022-11-28T09:03:45;4.22;;;1.80;;
28848;SDS011;15981;43.292;-2.888;2022-11-28T09:06:11;5.47;;;1.90;;
28848;SDS011;15981;43.292;-2.888;2022-11-28T09:08:37;3.85;;;1.90;;
28848;SDS011;15981;43.292;-2.888;2022-11-28T09:11:05;4.47;;;1.83;;
28848;SDS011;15981;43.292;-2.888;2022-11-28T09:13:30;4.15;;;1.77;;
28848;SDS011;15981;43.292;-2.888;2022-11-28T09:15:56;32.83;;;17.75;;
28848;SDS011;15981;43.292;-2.888;2022-11-28T09:18:22;80.65;;;42.15;;
28848;SDS011;15981;43.292;-2.888;2022-11-28T09:20:47;127.45;;;62.47;;
28848;SDS011;15981;43.292;-2.888;2022-11-28T09:23:13;127.07;;;63.97;;
28848;SDS011;15981;43.292;-2.888;2022-11-28T09:25:39;103.40;;;54.45;;
28848;SDS011;15981;43.292;-2.888;2022-11-28T09:28:05;93.60;;;49.63;;
28848;SDS011;15981;43.292;-2.888;2022-11-28T09:30:31;89.40;;;46.85;;
28848;SDS011;15981;43.292;-2.888;2022-11-28T09:32:57;88.22;;;45.40;;
28848;SDS011;15981;43.292;-2.888;2022-11-28T09:35:22;81.93;;;45.63;;
28848;SDS011;15981;43.292;-2.888;2022-11-28T09:37:48;84.65;;;44.83;;
28848;SDS011;15981;43.292;-2.888;2022-11-28T09:40:17;76.22;;;44.08;;
28848;SDS011;15981;43.292;-2.888;2022-11-28T09:42:44;77.53;;;43.55;;
28848;SDS011;15981;43.292;-2.888;2022-11-28T09:45:17;74.03;;;40.70;;
28848;SDS011;15981;43.292;-2.888;2022-11-28T09:47:46;71.88;;;40.22;;
28848;SDS011;15981;43.292;-2.888;2022-11-28T09:50:18;69.75;;;40.35;;
28848;SDS011;15981;43.292;-2.888;2022-11-28T09:53:00;67.30;;;38.75;;
28848;SDS011;15981;43.292;-2.888;2022-11-28T09:55:33;65.43;;;38.38;;
28848;SDS011;15981;43.292;-2.888;2022-11-28T09:58:00;64.05;;;35.45;;
28848;SDS011;15981;43.292;-2.888;2022-11-28T10:00:31;66.13;;;37.08;;
28848;SDS011;15981;43.292;-2.888;2022-11-28T10:13:08;49.30;;;30.88;;
28848;SDS011;15981;43.292;-2.888;2022-11-28T10:15:48;59.35;;;30.92;;
28848;SDS011;15981;43.292;-2.888;2022-11-28T10:20:44;46.08;;;25.48;;
28848;SDS011;15981;43.292;-2.888;2022-11-28T10:28:28;45.95;;;26.50;;
28848;SDS011;15981;43.292;-2.888;2022-11-28T10:31:05;50.53;;;24.90;;
28848;SDS011;15981;43.292;-2.888;2022-11-28T10:33:34;49.65;;;25.63;;
28848;SDS011;15981;43.292;-2.888;2022-11-28T10:36:01;41.50;;;23.98;;
28848;SDS011;15981;43.292;-2.888;2022-11-28T10:38:29;37.38;;;20.25;;
28848;SDS011;15981;43.292;-2.888;2022-11-28T10:46:18;39.33;;;23.00;;
28848;SDS011;15981;43.292;-2.888;2022-11-28T10:51:30;33.40;;;18.98;;
28848;SDS011;15981;43.292;-2.888;2022-11-28T10:58:54;31.92;;;18.25;;
28848;SDS011;15981;43.292;-2.888;2022-11-28T11:01:22;30.75;;;17.10;;
28848;SDS011;15981;43.292;-2.888;2022-11-28T11:03:48;36.20;;;17.35;;
28848;SDS011;15981;43.292;-2.888;2022-11-28T11:06:14;30.15;;;16.15;;
28848;SDS011;15981;43.292;-2.888;2022-11-28T11:08:40;25.35;;;14.15;;
28848;SDS011;15981;43.292;-2.888;2022-11-28T11:13:35;23.20;;;12.63;;
28848;SDS011;15981;43.292;-2.888;2022-11-28T11:16:17;21.90;;;12.05;;
28848;SDS011;15981;43.292;-2.888;2022-11-28T11:23:38;17.50;;;9.43;;
28848;SDS011;15981;43.292;-2.888;2022-11-28T11:26:04;18.83;;;9.60;;
28848;SDS011;15981;43.292;-2.888;2022-11-28T11:31:00;18.35;;;8.82;;
28848;SDS011;15981;43.292;-2.888;2022-11-28T11:33:29;13.95;;;7.32;;
28848;SDS011;15981;43.292;-2.888;2022-11-28T11:35:56;14.63;;;6.25;;
28848;SDS011;15981;43.292;-2.888;2022-11-28T11:40:49;13.82;;;7.57;;
28848;SDS011;15981;43.292;-2.888;2022-11-28T11:43:28;14.43;;;7.05;;
28848;SDS011;15981;43.292;-2.888;2022-11-28T11:48:36;14.63;;;7.10;;
28848;SDS011;15981;43.292;-2.888;2022-11-28T11:51:02;17.23;;;8.32;;
28848;SDS011;15981;43.292;-2.888;2022-11-28T11:53:28;11.75;;;6.47;;
28848;SDS011;15981;43.292;-2.888;2022-11-28T11:55:54;11.95;;;5.43;;
28848;SDS011;15981;43.292;-2.888;2022-11-28T11:58:21;14.68;;;7.40;;
28848;SDS011;15981;43.292;-2.888;2022-11-28T12:00:47;11.95;;;5.93;;
28848;SDS011;15981;43.292;-2.888;2022-11-28T12:03:27;15.48;;;6.35;;
28848;SDS011;15981;43.292;-2.888;2022-11-28T12:05:55;12.07;;;6.10;;
28848;SDS011;15981;43.292;-2.888;2022-11-28T12:08:46;9.75;;;5.85;;
28848;SDS011;15981;43.292;-2.888;2022-11-28T12:13:34;12.82;;;5.90;;
28848;SDS011;15981;43.292;-2.888;2022-11-28T12:16:18;14.27;;;5.60;;
28848;SDS011;15981;43.292;-2.888;2022-11-28T12:21:38;13.20;;;6.00;;
28848;SDS011;15981;43.292;-2.888;2022-11-28T12:24:10;13.05;;;5.38;;
28848;SDS011;15981;43.292;-2.888;2022-11-28T12:26:43;10.20;;;5.25;;
28848;SDS011;15981;43.292;-2.888;2022-11-28T12:31:54;12.15;;;5.55;;
28848;SDS011;15981;43.292;-2.888;2022-11-28T12:34:29;9.25;;;4.60;;
28848;SDS011;15981;43.292;-2.888;2022-11-28T12:45:09;44.38;;;27.95;;
28848;SDS011;15981;43.292;-2.888;2022-11-28T12:47:44;42.80;;;29.73;;
28848;SDS011;15981;43.292;-2.888;2022-11-28T12:57:56;40.50;;;28.55;;
28848;SDS011;15981;43.292;-2.888;2022-11-28T13:00:24;35.42;;;23.98;;
28848;SDS011;15981;43.292;-2.888;2022-11-28T13:05:24;44.78;;;32.15;;
28848;SDS011;15981;43.292;-2.888;2022-11-28T13:10:38;38.42;;;25.13;;
28848;SDS011;15981;43.292;-2.888;2022-11-28T13:13:07;39.25;;;30.15;;
28848;SDS011;15981;43.292;-2.888;2022-11-28T13:18:10;36.30;;;26.90;;
28848;SDS011;15981;43.292;-2.888;2022-11-28T13:20:42;29.20;;;20.85;;
28848;SDS011;15981;43.292;-2.888;2022-11-28T13:23:13;35.88;;;24.05;;
28848;SDS011;15981;43.292;-2.888;2022-11-28T13:28:21;48.05;;;33.78;;
28848;SDS011;15981;43.292;-2.888;2022-11-28T13:30:52;46.88;;;35.47;;
28848;SDS011;15981;43.292;-2.888;2022-11-28T13:35:58;49.78;;;33.30;;
28848;SDS011;15981;43.292;-2.888;2022-11-28T13:40:59;51.13;;;37.53;;
28848;SDS011;15981;43.292;-2.888;2022-11-28T13:43:45;54.17;;;36.05;;
28848;SDS011;15981;43.292;-2.888;2022-11-28T13:46:14;44.38;;;31.33;;
28848;SDS011;15981;43.292;-2.888;2022-11-28T13:51:25;39.75;;;29.42;;
28848;SDS011;15981;43.292;-2.888;2022-11-28T13:54:40;45.58;;;31.35;;
28848;SDS011;15981;43.292;-2.888;2022-11-28T13:56:38;44.13;;;30.70;;
28848;SDS011;15981;43.292;-2.888;2022-11-28T13:59:09;41.80;;;31.80;;
28848;SDS011;15981;43.292;-2.888;2022-11-28T14:04:07;51.85;;;33.00;;
28848;SDS011;15981;43.292;-2.888;2022-11-28T14:17:18;34.83;;;22.80;;
28848;SDS011;15981;43.292;-2.888;2022-11-28T14:24:50;26.35;;;18.45;;
28848;SDS011;15981;43.292;-2.888;2022-11-28T14:27:28;28.98;;;20.50;;
28848;SDS011;15981;43.292;-2.888;2022-11-28T14:29:55;30.48;;;19.73;;
28848;SDS011;15981;43.292;-2.888;2022-11-28T14:34:50;27.17;;;16.35;;
28848;SDS011;15981;43.292;-2.888;2022-11-28T14:39:45;22.25;;;14.40;;
28848;SDS011;15981;43.292;-2.888;2022-11-28T14:47:15;17.90;;;12.35;;
28848;SDS011;15981;43.292;-2.888;2022-11-28T14:49:41;16.73;;;10.40;;
28848;SDS011;15981;43.292;-2.888;2022-11-28T14:52:17;14.43;;;9.85;;
28848;SDS011;15981;43.292;-2.888;2022-11-28T14:54:44;15.48;;;11.02;;
28848;SDS011;15981;43.292;-2.888;2022-11-28T14:59:42;16.40;;;9.73;;
28848;SDS011;15981;43.292;-2.888;2022-11-28T15:04:46;17.25;;;8.75;;
28848;SDS011;15981;43.292;-2.888;2022-11-28T15:07:22;13.73;;;8.20;;
28848;SDS011;15981;43.292;-2.888;2022-11-28T15:12:22;15.00;;;8.20;;
28848;SDS011;15981;43.292;-2.888;2022-11-28T15:14:50;18.10;;;8.88;;
28848;SDS011;15981;43.292;-2.888;2022-11-28T15:17:19;15.00;;;8.02;;
28848;SDS011;15981;43.292;-2.888;2022-11-28T15:19:46;13.93;;;6.80;;
28848;SDS011;15981;43.292;-2.888;2022-11-28T15:22:31;11.25;;;7.28;;
28848;SDS011;15981;43.292;-2.888;2022-11-28T15:24:58;12.13;;;6.88;;
28848;SDS011;15981;43.292;-2.888;2022-11-28T15:27:24;12.18;;;6.50;;
28848;SDS011;15981;43.292;-2.888;2022-11-28T15:29:57;11.85;;;5.90;;
28848;SDS011;15981;43.292;-2.888;2022-11-28T15:32:23;9.15;;;5.70;;
28848;SDS011;15981;43.292;-2.888;2022-11-28T15:34:51;9.55;;;5.75;;
28848;SDS011;15981;43.292;-2.888;2022-11-28T15:37:18;8.57;;;5.10;;
28848;SDS011;15981;43.292;-2.888;2022-11-28T15:39:44;12.70;;;5.50;;
28848;SDS011;15981;43.292;-2.888;2022-11-28T15:42:19;7.47;;;4.60;;
28848;SDS011;15981;43.292;-2.888;2022-11-28T15:44:45;6.85;;;4.07;;
28848;SDS011;15981;43.292;-2.888;2022-11-28T15:47:17;7.40;;;3.97;;
28848;SDS011;15981;43.292;-2.888;2022-11-28T15:49:44;8.60;;;4.35;;
28848;SDS011;15981;43.292;-2.888;2022-11-28T15:52:16;10.50;;;4.97;;
28848;SDS011;15981;43.292;-2.888;2022-11-28T15:54:47;9.50;;;4.78;;
28848;SDS011;15981;43.292;-2.888;2022-11-28T15:57:17;9.30;;;4.00;;
28848;SDS011;15981;43.292;-2.888;2022-11-28T15:59:43;8.15;;;3.90;;
28848;SDS011;15981;43.292;-2.888;2022-11-28T16:02:14;8.88;;;4.30;;
28848;SDS011;15981;43.292;-2.888;2022-11-28T16:04:40;6.90;;;3.80;;
28848;SDS011;15981;43.292;-2.888;2022-11-28T16:07:08;6.15;;;3.25;;
28848;SDS011;15981;43.292;-2.888;2022-11-28T16:09:36;7.97;;;3.53;;
28848;SDS011;15981;43.292;-2.888;2022-11-28T16:12:03;6.13;;;3.30;;
28848;SDS011;15981;43.292;-2.888;2022-11-28T16:14:33;8.25;;;3.33;;
28848;SDS011;15981;43.292;-2.888;2022-11-28T16:17:01;6.18;;;3.33;;
28848;SDS011;15981;43.292;-2.888;2022-11-28T16:19:28;5.40;;;3.10;;
28848;SDS011;15981;43.292;-2.888;2022-11-28T16:21:56;7.57;;;3.90;;
28848;SDS011;15981;43.292;-2.888;2022-11-28T16:24:27;10.00;;;5.30;;
28848;SDS011;15981;43.292;-2.888;2022-11-28T16:26:54;8.70;;;4.97;;
28848;SDS011;15981;43.292;-2.888;2022-11-28T16:29:21;7.40;;;4.50;;
28848;SDS011;15981;43.292;-2.888;2022-11-28T16:31:48;6.85;;;5.13;;
28848;SDS011;15981;43.292;-2.888;2022-11-28T16:34:13;10.20;;;5.72;;
28848;SDS011;15981;43.292;-2.888;2022-11-28T16:36:39;8.57;;;5.30;;
28848;SDS011;15981;43.292;-2.888;2022-11-28T16:39:16;7.38;;;4.88;;
28848;SDS011;15981;43.292;-2.888;2022-11-28T16:41:49;8.55;;;4.55;;
28848;SDS011;15981;43.292;-2.888;2022-11-28T16:44:17;8.10;;;4.70;;
28848;SDS011;15981;43.292;-2.888;2022-11-28T16:49:27;8.35;;;4.65;;
28848;SDS011;15981;43.292;-2.888;2022-11-28T16:52:08;8.23;;;4.68;;
28848;SDS011;15981;43.292;-2.888;2022-11-28T16:54:38;9.43;;;4.15;;
28848;SDS011;15981;43.292;-2.888;2022-11-28T16:57:07;6.25;;;3.88;;
28848;SDS011;15981;43.292;-2.888;2022-11-28T16:59:34;7.50;;;4.07;;
28848;SDS011;15981;43.292;-2.888;2022-11-28T17:01:59;6.25;;;3.75;;
28848;SDS011;15981;43.292;-2.888;2022-11-28T17:04:26;10.43;;;4.20;;
28848;SDS011;15981;43.292;-2.888;2022-11-28T17:06:53;7.47;;;4.03;;
28848;SDS011;15981;43.292;-2.888;2022-11-28T17:09:19;5.13;;;3.65;;
28848;SDS011;15981;43.292;-2.888;2022-11-28T17:11:46;7.10;;;3.65;;
28848;SDS011;15981;43.292;-2.888;2022-11-28T17:14:13;6.72;;;3.30;;
28848;SDS011;15981;43.292;-2.888;2022-11-28T17:16:38;7.05;;;3.20;;
28848;SDS011;15981;43.292;-2.888;2022-11-28T17:19:05;6.82;;;3.33;;
28848;SDS011;15981;43.292;-2.888;2022-11-28T17:21:32;6.15;;;3.20;;
28848;SDS011;15981;43.292;-2.888;2022-11-28T17:23:59;6.13;;;3.40;;
28848;SDS011;15981;43.292;-2.888;2022-11-28T17:26:25;6.05;;;2.97;;
28848;SDS011;15981;43.292;-2.888;2022-11-28T17:28:50;5.80;;;3.30;;
28848;SDS011;15981;43.292;-2.888;2022-11-28T17:31:16;5.95;;;3.03;;